Time;durP1;ratioP1;P1;durP2;ratioP2;P2;SDS_P1;SDS_P2;PMS_P1;PMS_P2;Temp;Humidity;BMP_temperature;BMP_pressure;BME280_temperature;BME280_humidity;BME280_pressure;Samples;Min_cycle;Max_cycle;Signal;HPM_P1;HPM_P2
2024/01/28 00:00:20;;;;;;;12.25;2.40;;;24.90;73.20;;;;;;5079068;28;20033;-92
2024/01/28 00:02:48;;;;;;;9.10;2.28;;;24.90;73.40;;;;;;5074398;28;20016;-91
2024/01/28 00:05:15;;;;;;;10.50;2.70;;;25.00;73.20;;;;;;5064961;28;20033;-86
2024/01/28 00:07:44;;;;;;;11.10;2.42;;;25.00;72.80;;;;;;5072281;28;20515;-83
2024/01/28 00:10:11;;;;;;;12.00;2.40;;;25.10;72.80;;;;;;5077973;28;20020;-81
2024/01/28 00:12:38;;;;;;;8.10;1.90;;;25.10;72.50;;;;;;5079381;28;20090;-91
2024/01/28 00:15:06;;;;;;;11.73;2.42;;;25.10;71.60;;;;;;5075727;28;20024;-90
2024/01/28 00:17:38;;;;;;;9.43;1.90;;;25.10;71.80;;;;;;5079183;28;20059;-81
2024/01/28 00:20:06;;;;;;;12.77;2.80;;;25.20;70.80;;;;;;5069018;28;20028;-83
2024/01/28 00:22:36;;;;;;;9.35;2.47;;;25.20;71.30;;;;;;5070520;28;20533;-80
2024/01/28 00:25:05;;;;;;;7.40;2.20;;;25.30;71.40;;;;;;5061413;28;20024;-85
2024/01/28 00:27:32;;;;;;;8.05;2.15;;;25.30;71.50;;;;;;5071819;28;20548;-93
2024/01/28 00:30:00;;;;;;;11.65;2.78;;;25.30;70.70;;;;;;5074946;28;20025;-92
2024/01/28 00:32:30;;;;;;;7.75;2.25;;;25.40;71.00;;;;;;5081444;28;20089;-90
2024/01/28 00:35:08;;;;;;;8.52;2.05;;;25.50;71.30;;;;;;5082439;28;20074;-92
2024/01/28 00:37:36;;;;;;;13.05;2.47;;;25.50;71.20;;;;;;5067908;28;20036;-86
2024/01/28 00:40:04;;;;;;;11.23;2.15;;;25.50;71.00;;;;;;5056010;28;20060;-91
2024/01/28 00:42:32;;;;;;;9.73;2.25;;;25.60;70.90;;;;;;5075146;28;20024;-82
2024/01/28 00:45:02;;;;;;;8.23;2.15;;;25.60;70.90;;;;;;5085668;28;20085;-88
2024/01/28 00:47:29;;;;;;;14.45;2.60;;;25.70;71.00;;;;;;5066297;28;20038;-81
2024/01/28 00:49:56;;;;;;;9.48;2.53;;;25.70;70.50;;;;;;5068735;28;20029;-87
2024/01/28 00:52:28;;;;;;;9.32;2.05;;;25.70;70.40;;;;;;5073140;28;20039;-86
2024/01/28 00:54:56;;;;;;;8.43;2.30;;;25.80;70.40;;;;;;5078755;28;20069;-82
2024/01/28 00:57:23;;;;;;;8.00;2.50;;;25.80;70.60;;;;;;5078632;28;20025;-91
2024/01/28 00:59:51;;;;;;;11.25;2.38;;;25.70;70.20;;;;;;5083828;28;20021;-85
2024/01/28 01:02:22;;;;;;;7.95;2.22;;;25.80;70.20;;;;;;5068351;28;20028;-88
2024/01/28 01:04:50;;;;;;;8.77;2.20;;;25.80;70.00;;;;;;5073696;28;20020;-84
2024/01/28 01:07:25;;;;;;;14.52;2.67;;;25.70;69.70;;;;;;5066396;28;20503;-88
2024/01/28 01:09:52;;;;;;;13.55;3.13;;;25.70;70.20;;;;;;5080053;28;20016;-93
2024/01/28 01:12:22;;;;;;;11.93;2.95;;;25.70;70.60;;;;;;5074761;28;20041;-91
2024/01/28 01:14:49;;;;;;;12.00;2.90;;;25.80;70.70;;;;;;5064346;28;20024;-92
2024/01/28 01:17:16;;;;;;;12.82;2.75;;;25.80;70.60;;;;;;5066066;28;20049;-83
2024/01/28 01:19:44;;;;;;;13.02;5.97;;;25.80;70.20;;;;;;5068284;28;20012;-88
2024/01/28 01:22:14;;;;;;;12.90;2.63;;;25.80;70.60;;;;;;5071574;28;20088;-89
2024/01/28 01:24:41;;;;;;;12.77;2.50;;;25.90;70.50;;;;;;5063090;28;20099;-91
2024/01/28 01:27:08;;;;;;;14.93;2.83;;;25.90;70.50;;;;;;5074032;28;20032;-87
2024/01/28 01:29:37;;;;;;;21.23;3.17;;;26.00;70.70;;;;;;5074303;28;20411;-88
2024/01/28 01:32:05;;;;;;;12.55;2.58;;;26.10;70.40;;;;;;5066255;28;20383;-92
2024/01/28 01:34:33;;;;;;;9.82;2.65;;;26.00;70.50;;;;;;5059973;28;20066;-82
2024/01/28 01:37:00;;;;;;;9.27;2.55;;;26.00;70.40;;;;;;5072907;28;20475;-90
2024/01/28 01:39:27;;;;;;;9.75;2.80;;;26.00;70.70;;;;;;5064425;28;20091;-80
2024/01/28 01:41:56;;;;;;;11.55;2.90;;;25.80;70.80;;;;;;5070098;28;20023;-83
2024/01/28 01:44:23;;;;;;;11.50;2.63;;;25.80;71.10;;;;;;5071918;28;20391;-80
2024/01/28 01:46:51;;;;;;;13.20;2.60;;;25.80;70.50;;;;;;5067779;28;20028;-83
2024/01/28 01:49:19;;;;;;;9.52;2.47;;;25.80;70.60;;;;;;5069740;28;20513;-88
2024/01/28 01:51:46;;;;;;;13.50;2.65;;;25.80;70.60;;;;;;5068140;28;20506;-81
2024/01/28 01:54:14;;;;;;;12.50;2.65;;;25.80;70.90;;;;;;5069545;28;20056;-82
2024/01/28 01:56:42;;;;;;;12.25;2.78;;;25.90;70.70;;;;;;5064385;28;20028;-86
2024/01/28 01:59:09;;;;;;;11.30;2.50;;;26.00;70.30;;;;;;5062310;28;20024;-88
2024/01/28 02:01:37;;;;;;;13.73;2.90;;;26.00;69.80;;;;;;5065502;28;20032;-81
2024/01/28 02:04:04;;;;;;;9.63;3.00;;;26.00;69.10;;;;;;5063027;28;20016;-85
2024/01/28 02:06:32;;;;;;;11.93;2.90;;;26.00;68.70;;;;;;5072073;28;20021;-82
2024/01/28 02:09:00;;;;;;;9.48;2.47;;;26.00;69.20;;;;;;5072674;28;20031;-93
2024/01/28 02:11:28;;;;;;;8.07;2.28;;;26.10;69.10;;;;;;5074002;28;20067;-83
2024/01/28 02:13:56;;;;;;;11.45;2.42;;;26.10;69.30;;;;;;5067454;28;20349;-82
2024/01/28 02:16:26;;;;;;;10.05;2.90;;;26.20;69.20;;;;;;5069839;28;20060;-82
2024/01/28 02:18:53;;;;;;;9.38;2.53;;;26.20;67.70;;;;;;5067066;28;20486;-81
2024/01/28 02:21:20;;;;;;;11.10;2.80;;;26.20;67.40;;;;;;5067490;28;20091;-84
2024/01/28 02:23:48;;;;;;;12.13;2.50;;;26.20;67.50;;;;;;5065518;28;20101;-87
2024/01/28 02:26:15;;;;;;;10.07;2.85;;;26.20;68.00;;;;;;5071657;28;20450;-85
2024/01/28 02:28:43;;;;;;;11.13;2.83;;;26.20;67.70;;;;;;5084198;28;20020;-92
2024/01/28 02:31:10;;;;;;;11.20;2.70;;;26.30;67.90;;;;;;5067478;28;20503;-91
2024/01/28 02:33:37;;;;;;;10.23;2.38;;;26.30;68.00;;;;;;5072411;28;20021;-91
2024/01/28 02:36:05;;;;;;;11.73;2.30;;;26.30;67.80;;;;;;5079184;28;20131;-84
2024/01/28 02:38:34;;;;;;;8.95;2.75;;;26.30;67.60;;;;;;5084074;28;20020;-92
2024/01/28 02:41:02;;;;;;;11.68;2.55;;;26.30;67.90;;;;;;5082526;28;20020;-90
2024/01/28 02:43:30;;;;;;;6.47;2.00;;;26.30;67.20;;;;;;5075563;28;20016;-87
2024/01/28 02:45:57;;;;;;;12.63;2.50;;;26.30;67.50;;;;;;5068627;28;20506;-81
2024/01/28 02:48:26;;;;;;;13.48;3.20;;;26.30;67.60;;;;;;5079206;28;20028;-92
2024/01/28 02:50:53;;;;;;;12.05;2.65;;;26.40;67.80;;;;;;5064496;28;20123;-91
2024/01/28 02:53:21;;;;;;;10.85;2.53;;;26.40;67.60;;;;;;5078079;28;20040;-81
2024/01/28 02:55:51;;;;;;;9.80;2.25;;;26.50;67.40;;;;;;5077197;28;20025;-83
2024/01/28 02:58:18;;;;;;;13.02;2.28;;;26.40;66.20;;;;;;5078716;28;20084;-87
2024/01/28 03:00:46;;;;;;;7.00;1.98;;;26.40;66.80;;;;;;5074036;28;20479;-92
2024/01/28 03:03:14;;;;;;;7.78;2.22;;;26.50;66.90;;;;;;5086975;28;20031;-88
2024/01/28 03:05:43;;;;;;;11.57;2.13;;;26.50;66.80;;;;;;5050800;28;20032;-82
2024/01/28 03:08:10;;;;;;;8.38;2.15;;;26.40;66.40;;;;;;5076586;28;20025;-85
2024/01/28 03:10:39;;;;;;;8.73;2.75;;;26.50;66.50;;;;;;5070211;28;20032;-85
2024/01/28 03:13:09;;;;;;;12.98;2.53;;;26.50;66.40;;;;;;5077179;28;20119;-87
2024/01/28 03:15:37;;;;;;;9.90;2.20;;;26.50;66.00;;;;;;5072271;28;20021;-90
2024/01/28 03:18:04;;;;;;;9.88;2.60;;;26.60;66.30;;;;;;5069453;28;20039;-93
2024/01/28 03:20:32;;;;;;;9.75;2.22;;;26.70;66.20;;;;;;5065488;28;20484;-90
2024/01/28 03:22:59;;;;;;;10.65;2.65;;;26.80;65.90;;;;;;5069907;28;20102;-91
2024/01/28 03:25:36;;;;;;;7.00;2.13;;;26.80;64.90;;;;;;5066509;28;20032;-90
2024/01/28 03:28:05;;;;;;;10.60;2.28;;;26.80;65.00;;;;;;5069714;28;20526;-83
2024/01/28 03:30:32;;;;;;;10.80;2.55;;;26.80;65.00;;;;;;5054443;28;20391;-92
2024/01/28 03:33:00;;;;;;;8.00;2.63;;;26.70;65.20;;;;;;5074828;28;20129;-92
2024/01/28 03:35:34;;;;;;;9.57;2.13;;;26.70;65.30;;;;;;5068163;28;20052;-88
2024/01/28 03:38:08;;;;;;;10.50;2.08;;;26.60;65.30;;;;;;5076722;28;20025;-92
2024/01/28 03:40:43;;;;;;;11.38;2.55;;;26.50;65.60;;;;;;5071483;28;20161;-89
2024/01/28 03:43:11;;;;;;;10.25;2.20;;;26.40;66.10;;;;;;5071048;28;20052;-90
2024/01/28 03:45:40;;;;;;;8.27;2.10;;;26.40;66.20;;;;;;5068330;28;20036;-89
2024/01/28 03:48:07;;;;;;;7.85;2.20;;;26.30;66.30;;;;;;5062534;28;20024;-90
2024/01/28 03:50:35;;;;;;;4.97;1.77;;;26.30;66.40;;;;;;5061975;28;20443;-82
2024/01/28 03:53:02;;;;;;;7.72;2.20;;;26.30;66.50;;;;;;5063529;28;20427;-79
2024/01/28 03:55:30;;;;;;;6.28;2.00;;;26.30;66.90;;;;;;5057337;28;20104;-83
2024/01/28 03:57:57;;;;;;;11.82;2.40;;;26.30;66.90;;;;;;5058310;28;20021;-88
2024/01/28 04:00:28;;;;;;;6.78;2.10;;;26.30;66.60;;;;;;5071977;28;20740;-80
2024/01/28 04:02:57;;;;;;;8.68;2.35;;;26.30;66.50;;;;;;5064859;28;20447;-88
2024/01/28 04:05:27;;;;;;;10.20;2.28;;;26.30;66.50;;;;;;5070315;28;20017;-91
2024/01/28 04:07:54;;;;;;;7.88;2.05;;;26.30;66.80;;;;;;5073778;28;20056;-90
2024/01/28 04:10:21;;;;;;;8.07;2.03;;;26.30;67.00;;;;;;5062720;28;20465;-83
2024/01/28 04:12:50;;;;;;;9.48;2.45;;;26.30;67.10;;;;;;5075031;28;20048;-92
2024/01/28 04:15:17;;;;;;;13.23;2.90;;;26.30;66.70;;;;;;5071255;28;20024;-84
2024/01/28 04:17:44;;;;;;;10.23;2.42;;;26.30;67.00;;;;;;5076854;28;20499;-87
2024/01/28 04:20:12;;;;;;;8.30;2.25;;;26.30;66.90;;;;;;5081674;28;20127;-89
2024/01/28 04:22:40;;;;;;;9.50;2.38;;;26.30;66.50;;;;;;5074692;28;20438;-92
2024/01/28 04:25:08;;;;;;;8.30;2.10;;;26.40;66.40;;;;;;5092037;28;20035;-88
2024/01/28 04:27:36;;;;;;;9.73;1.98;;;26.30;66.40;;;;;;5069533;28;20020;-91
2024/01/28 04:30:06;;;;;;;7.65;1.85;;;26.40;66.20;;;;;;5082518;28;20035;-90
2024/01/28 04:32:34;;;;;;;6.97;1.83;;;26.30;66.30;;;;;;5074765;28;20033;-88
2024/01/28 04:35:02;;;;;;;5.10;1.70;;;26.30;66.10;;;;;;5084272;28;20084;-91
2024/01/28 04:37:30;;;;;;;7.18;2.30;;;26.30;66.30;;;;;;5074057;28;20025;-85
2024/01/28 04:39:57;;;;;;;10.63;2.13;;;26.30;66.30;;;;;;5073763;28;20016;-89
2024/01/28 04:42:27;;;;;;;8.25;2.13;;;26.30;66.00;;;;;;5084414;28;20028;-88
2024/01/28 04:44:54;;;;;;;8.45;2.08;;;26.30;66.40;;;;;;5068415;28;20024;-84
2024/01/28 04:47:23;;;;;;;9.50;2.55;;;26.30;66.60;;;;;;5067656;28;20086;-85
2024/01/28 04:49:51;;;;;;;7.70;2.40;;;26.30;66.80;;;;;;5088314;28;20093;-88
2024/01/28 04:52:18;;;;;;;9.25;2.00;;;26.30;66.70;;;;;;5075567;28;20035;-82
2024/01/28 04:54:47;;;;;;;9.13;2.15;;;26.30;66.80;;;;;;5075619;28;20069;-91
2024/01/28 04:57:14;;;;;;;7.22;2.08;;;26.30;66.70;;;;;;5065477;28;20028;-86
2024/01/28 04:59:41;;;;;;;7.60;2.05;;;26.30;66.70;;;;;;5075703;28;20021;-82
2024/01/28 05:02:09;;;;;;;10.13;1.95;;;26.40;66.40;;;;;;5075842;28;20158;-85
2024/01/28 05:04:36;;;;;;;8.27;2.10;;;26.50;66.30;;;;;;5075892;28;20016;-93
2024/01/28 05:07:04;;;;;;;10.00;2.00;;;26.50;65.90;;;;;;5079410;28;20054;-91
2024/01/28 05:09:32;;;;;;;6.30;1.77;;;26.50;65.80;;;;;;5075292;28;20029;-90
2024/01/28 05:11:59;;;;;;;5.63;1.98;;;26.50;65.80;;;;;;5059106;28;20036;-91
2024/01/28 05:14:27;;;;;;;7.75;1.90;;;26.60;65.80;;;;;;5082279;28;20052;-92
2024/01/28 05:16:55;;;;;;;7.13;1.90;;;26.50;65.70;;;;;;5079322;28;20482;-87
2024/01/28 05:19:22;;;;;;;6.85;1.95;;;26.60;65.70;;;;;;5079683;28;20031;-93
2024/01/28 05:21:50;;;;;;;8.85;2.17;;;26.60;65.70;;;;;;5076073;28;20029;-93
2024/01/28 05:24:19;;;;;;;10.73;2.00;;;26.60;65.70;;;;;;5074711;28;20052;-87
2024/01/28 05:26:49;;;;;;;7.43;1.85;;;26.60;65.70;;;;;;5075662;28;20067;-93
2024/01/28 05:29:16;;;;;;;8.75;1.90;;;26.50;65.40;;;;;;5073807;28;20601;-82
2024/01/28 05:31:44;;;;;;;8.27;1.70;;;26.40;65.40;;;;;;5073620;28;20031;-91
2024/01/28 05:34:12;;;;;;;8.00;2.30;;;26.30;65.40;;;;;;5072904;28;20031;-82
2024/01/28 05:36:39;;;;;;;11.25;2.13;;;26.30;65.60;;;;;;5071353;28;20497;-88
2024/01/28 05:39:07;;;;;;;4.40;1.60;;;26.30;65.50;;;;;;5071187;28;20035;-84
2024/01/28 05:41:34;;;;;;;6.68;1.63;;;26.20;65.80;;;;;;5075070;28;20371;-81
2024/01/28 05:44:02;;;;;;;9.68;1.95;;;26.10;66.00;;;;;;5078432;28;20030;-89
2024/01/28 05:46:31;;;;;;;5.57;1.95;;;26.10;66.20;;;;;;5073234;28;20131;-91
2024/01/28 05:49:01;;;;;;;8.25;1.85;;;26.20;66.20;;;;;;5079022;28;20025;-91
2024/01/28 05:51:28;;;;;;;7.75;1.55;;;26.20;65.90;;;;;;5079676;28;20027;-90
2024/01/28 05:53:56;;;;;;;9.10;1.50;;;26.20;66.10;;;;;;5078889;28;20037;-91
2024/01/28 05:56:23;;;;;;;5.50;1.48;;;26.30;66.10;;;;;;5079735;28;20530;-91
2024/01/28 05:58:51;;;;;;;7.63;1.73;;;26.30;66.00;;;;;;5077442;28;20103;-83
2024/01/28 06:01:18;;;;;;;7.55;2.08;;;26.30;65.60;;;;;;5078073;28;20112;-91
2024/01/28 06:03:46;;;;;;;8.32;1.80;;;26.30;65.30;;;;;;5083189;28;20379;-91
2024/01/28 06:06:14;;;;;;;8.48;1.98;;;26.30;65.60;;;;;;5080652;28;20024;-91
2024/01/28 06:08:44;;;;;;;8.43;1.80;;;26.30;65.80;;;;;;5073717;28;20099;-88
2024/01/28 06:11:12;;;;;;;7.78;2.08;;;26.30;65.80;;;;;;5083685;28;20020;-90
2024/01/28 06:13:39;;;;;;;6.65;1.70;;;26.20;66.00;;;;;;5078269;28;20040;-80
2024/01/28 06:16:08;;;;;;;8.57;1.90;;;26.20;66.30;;;;;;5078252;28;20037;-82
2024/01/28 06:18:43;;;;;;;7.68;2.15;;;26.20;66.40;;;;;;5078214;28;20054;-87
2024/01/28 06:21:11;;;;;;;5.15;1.70;;;26.20;66.50;;;;;;5078657;28;20032;-84
2024/01/28 06:23:39;;;;;;;6.45;1.80;;;26.30;66.50;;;;;;5078541;28;20067;-88
2024/01/28 06:26:09;;;;;;;8.82;1.95;;;26.30;66.40;;;;;;5065451;28;20040;-87
2024/01/28 06:28:36;;;;;;;8.25;1.75;;;26.20;66.50;;;;;;5081249;28;20111;-88
2024/01/28 06:31:05;;;;;;;6.93;2.15;;;26.20;66.50;;;;;;5079522;28;20033;-90
2024/01/28 06:33:34;;;;;;;11.57;1.77;;;26.30;66.60;;;;;;5077064;28;20395;-89
2024/01/28 06:36:01;;;;;;;4.85;1.58;;;26.20;66.70;;;;;;5077547;28;20020;-84
2024/01/28 06:38:30;;;;;;;8.18;2.00;;;26.20;66.50;;;;;;5070464;28;20471;-81
2024/01/28 06:41:01;;;;;;;9.00;2.03;;;26.20;66.20;;;;;;5079636;28;20035;-88
2024/01/28 06:43:28;;;;;;;4.82;1.55;;;26.10;66.40;;;;;;5071546;28;20020;-89
2024/01/28 06:45:56;;;;;;;10.63;2.08;;;26.00;66.40;;;;;;5078371;28;20024;-89
2024/01/28 06:48:24;;;;;;;6.60;1.75;;;26.00;66.60;;;;;;5078751;28;20017;-90
2024/01/28 06:50:51;;;;;;;7.95;1.80;;;26.00;66.70;;;;;;5075064;28;20060;-83
2024/01/28 06:53:19;;;;;;;9.68;2.05;;;26.00;66.80;;;;;;5075611;28;20089;-80
2024/01/28 06:55:46;;;;;;;7.15;1.85;;;26.00;66.80;;;;;;5076422;28;20032;-89
2024/01/28 06:58:13;;;;;;;8.27;2.15;;;26.00;66.60;;;;;;5076047;28;20033;-87
2024/01/28 07:00:41;;;;;;;7.68;1.98;;;26.00;66.60;;;;;;5075667;28;20504;-88
2024/01/28 07:03:09;;;;;;;6.55;1.52;;;26.00;66.70;;;;;;5077779;28;20020;-90
2024/01/28 07:05:37;;;;;;;7.40;1.80;;;25.90;66.90;;;;;;5077690;28;20025;-82
2024/01/28 07:08:05;;;;;;;6.32;1.98;;;25.90;66.80;;;;;;5081821;28;20473;-90
2024/01/28 07:10:32;;;;;;;5.15;1.42;;;25.80;66.80;;;;;;5076511;28;20020;-79
2024/01/28 07:13:03;;;;;;;5.68;1.80;;;25.80;67.00;;;;;;5078198;28;20490;-81
2024/01/28 07:15:32;;;;;;;6.78;1.50;;;25.80;67.10;;;;;;5068760;28;20016;-81
2024/01/28 07:18:00;;;;;;;7.55;1.98;;;25.80;66.90;;;;;;5067355;28;20037;-84
2024/01/28 07:20:27;;;;;;;7.07;1.80;;;25.80;66.80;;;;;;5072515;28;20056;-83
2024/01/28 07:22:55;;;;;;;7.75;2.03;;;25.80;67.00;;;;;;5077042;28;20020;-81
2024/01/28 07:25:22;;;;;;;6.57;2.22;;;25.70;67.00;;;;;;5069005;28;20091;-81
2024/01/28 07:27:49;;;;;;;7.72;2.17;;;25.70;67.00;;;;;;5074878;28;20423;-82
2024/01/28 07:30:17;;;;;;;7.45;1.75;;;25.60;67.10;;;;;;5072198;28;20032;-84
2024/01/28 07:32:44;;;;;;;6.78;2.08;;;25.60;67.20;;;;;;5073737;28;20033;-90
2024/01/28 07:35:12;;;;;;;5.25;1.85;;;25.50;67.40;;;;;;5076513;28;20024;-88
2024/01/28 07:37:41;;;;;;;8.52;2.00;;;25.50;67.30;;;;;;5074286;28;20177;-83
2024/01/28 07:40:10;;;;;;;7.78;2.00;;;25.50;67.50;;;;;;5077493;28;20020;-79
2024/01/28 07:42:37;;;;;;;7.22;1.88;;;25.40;67.60;;;;;;5083519;28;20028;-87
2024/01/28 07:45:05;;;;;;;6.70;1.90;;;25.40;67.70;;;;;;5073214;28;20020;-89
2024/01/28 07:47:32;;;;;;;7.35;2.00;;;25.30;67.80;;;;;;5075507;28;20104;-83
2024/01/28 07:50:05;;;;;;;6.85;1.75;;;25.30;67.90;;;;;;5078203;28;20483;-85
2024/01/28 07:52:32;;;;;;;7.90;1.90;;;25.30;67.90;;;;;;5079575;28;20524;-91
2024/01/28 07:54:59;;;;;;;8.95;2.30;;;25.30;68.00;;;;;;5081607;28;20024;-87
2024/01/28 07:57:27;;;;;;;7.65;2.40;;;25.30;68.20;;;;;;5079912;28;20025;-82
2024/01/28 07:59:54;;;;;;;7.05;2.10;;;25.20;68.20;;;;;;5076610;28;20467;-89
2024/01/28 08:02:25;;;;;;;4.93;1.60;;;25.30;68.40;;;;;;5078083;28;20032;-91
2024/01/28 08:04:54;;;;;;;4.88;1.50;;;25.20;68.40;;;;;;5076569;28;20029;-81
2024/01/28 08:07:23;;;;;;;10.57;2.10;;;25.20;68.50;;;;;;5065624;28;20103;-85
2024/01/28 08:09:50;;;;;;;8.32;2.35;;;25.20;68.70;;;;;;5074434;28;20561;-85
2024/01/28 08:12:18;;;;;;;7.80;2.10;;;25.20;68.70;;;;;;5070903;28;20038;-85
2024/01/28 08:14:46;;;;;;;9.20;2.00;;;25.20;68.80;;;;;;5066811;28;20384;-82
2024/01/28 08:17:16;;;;;;;5.32;1.50;;;25.10;68.80;;;;;;5069733;28;20052;-85
2024/01/28 08:19:43;;;;;;;7.10;2.17;;;25.10;68.90;;;;;;5079942;28;20031;-91
2024/01/28 08:22:11;;;;;;;6.78;1.90;;;25.10;69.10;;;;;;5067519;28;20092;-80
2024/01/28 08:24:39;;;;;;;5.65;1.73;;;25.00;69.10;;;;;;5077891;28;20050;-89
2024/01/28 08:27:06;;;;;;;9.00;2.30;;;25.00;69.20;;;;;;5074345;28;20474;-88
2024/01/28 08:29:33;;;;;;;5.93;1.90;;;25.00;69.40;;;;;;5073340;28;20035;-83
2024/01/28 08:32:03;;;;;;;7.57;2.08;;;25.00;69.40;;;;;;5060028;28;20051;-87
2024/01/28 08:34:30;;;;;;;7.13;2.00;;;25.00;69.60;;;;;;5075412;28;20024;-90
2024/01/28 08:36:58;;;;;;;5.80;1.77;;;25.00;69.70;;;;;;5071788;28;20051;-86
2024/01/28 08:39:26;;;;;;;8.50;2.03;;;24.90;69.70;;;;;;5073994;28;20017;-85
2024/01/28 08:41:55;;;;;;;7.63;1.90;;;24.90;69.80;;;;;;5073508;28;20035;-86
2024/01/28 08:44:22;;;;;;;4.72;1.73;;;24.80;69.80;;;;;;5078232;28;20020;-89
2024/01/28 08:46:51;;;;;;;5.68;2.03;;;24.80;70.00;;;;;;5081310;28;20111;-90
2024/01/28 08:49:18;;;;;;;4.50;1.75;;;24.80;70.10;;;;;;5073159;28;20024;-88
2024/01/28 08:51:46;;;;;;;9.57;2.20;;;24.80;70.10;;;;;;5073304;28;20029;-89
2024/01/28 08:54:13;;;;;;;10.63;2.10;;;24.80;70.20;;;;;;5074717;28;20035;-89
2024/01/28 08:56:41;;;;;;;8.13;2.22;;;24.70;70.50;;;;;;5085493;28;20042;-87
2024/01/28 08:59:08;;;;;;;5.60;2.10;;;24.70;70.50;;;;;;5086053;28;20027;-90
2024/01/28 09:01:35;;;;;;;9.82;2.03;;;24.70;70.70;;;;;;5055833;28;20033;-84
2024/01/28 09:04:05;;;;;;;6.30;1.77;;;24.70;70.80;;;;;;5074633;28;20028;-86
2024/01/28 09:06:32;;;;;;;7.40;1.85;;;24.70;70.80;;;;;;5080413;28;20032;-88
2024/01/28 09:09:03;;;;;;;6.35;1.83;;;24.70;70.90;;;;;;5073329;28;20104;-91
2024/01/28 09:11:31;;;;;;;5.55;1.98;;;24.60;70.90;;;;;;5073581;28;20031;-87
2024/01/28 09:13:59;;;;;;;8.40;2.03;;;24.60;70.90;;;;;;5066791;28;20028;-91
2024/01/28 09:16:26;;;;;;;7.82;1.83;;;24.60;71.00;;;;;;5081534;28;20541;-88
2024/01/28 09:18:54;;;;;;;5.25;1.55;;;24.60;71.20;;;;;;5075620;28;20387;-89
2024/01/28 09:21:21;;;;;;;6.47;2.05;;;24.60;71.20;;;;;;5074338;28;20077;-87
2024/01/28 09:23:48;;;;;;;6.95;2.03;;;24.50;71.20;;;;;;5058896;28;20036;-91
2024/01/28 09:26:16;;;;;;;8.43;3.05;;;24.60;71.30;;;;;;5070434;28;20016;-91
2024/01/28 09:28:43;;;;;;;9.55;2.40;;;24.50;71.30;;;;;;5070236;28;20028;-91
2024/01/28 09:31:10;;;;;;;5.45;2.15;;;24.50;71.40;;;;;;5068630;28;20021;-89
2024/01/28 09:33:39;;;;;;;5.65;1.90;;;24.50;71.40;;;;;;5075516;28;20503;-88
2024/01/28 09:36:06;;;;;;;6.05;1.55;;;24.50;71.40;;;;;;5058105;28;20056;-91
2024/01/28 09:38:39;;;;;;;6.18;1.83;;;24.50;71.30;;;;;;5076692;28;20028;-90
2024/01/28 09:41:18;;;;;;;7.65;1.85;;;24.50;71.50;;;;;;5074564;28;20067;-85
2024/01/28 09:43:46;;;;;;;3.53;1.60;;;24.50;71.60;;;;;;5068683;28;20084;-91
2024/01/28 09:46:14;;;;;;;5.78;1.52;;;24.50;71.60;;;;;;5073910;28;20033;-92
2024/01/28 09:48:44;;;;;;;4.95;1.40;;;24.40;71.70;;;;;;5072245;28;20024;-91
2024/01/28 09:51:12;;;;;;;6.32;1.55;;;24.40;71.70;;;;;;5068070;28;20025;-92
2024/01/28 09:53:44;;;;;;;6.28;1.63;;;24.40;71.80;;;;;;5078193;28;20082;-91
2024/01/28 09:56:15;;;;;;;4.20;1.40;;;24.40;71.80;;;;;;5063569;28;20139;-92
2024/01/28 09:58:44;;;;;;;4.22;1.40;;;24.40;71.80;;;;;;5066607;28;20037;-90
2024/01/28 10:01:13;;;;;;;5.40;1.80;;;24.40;71.80;;;;;;5073782;28;20024;-89
2024/01/28 10:03:42;;;;;;;6.75;2.00;;;24.40;71.80;;;;;;5074488;28;20025;-91
2024/01/28 10:06:09;;;;;;;6.43;1.83;;;24.30;71.80;;;;;;5072706;28;20029;-90
2024/01/28 10:08:37;;;;;;;7.72;2.00;;;24.30;71.90;;;;;;5073890;28;20024;-87
2024/01/28 10:11:09;;;;;;;6.50;2.00;;;24.30;72.00;;;;;;5058858;28;20025;-92
2024/01/28 10:13:36;;;;;;;7.50;1.95;;;24.30;72.00;;;;;;5074026;28;20567;-82
2024/01/28 10:16:04;;;;;;;5.07;1.90;;;24.30;72.00;;;;;;5066078;28;20132;-91
2024/01/28 10:18:32;;;;;;;5.35;1.60;;;24.30;72.20;;;;;;5070052;28;20055;-86
2024/01/28 10:20:59;;;;;;;7.78;1.70;;;24.20;72.20;;;;;;5066177;28;20479;-90
2024/01/28 10:23:27;;;;;;;7.78;1.85;;;24.20;72.10;;;;;;5057525;28;20024;-89
2024/01/28 10:25:58;;;;;;;6.38;1.90;;;24.30;72.10;;;;;;5074455;28;20082;-90
2024/01/28 10:28:27;;;;;;;4.95;1.75;;;24.20;72.20;;;;;;5075677;28;20032;-89
2024/01/28 10:30:55;;;;;;;6.82;1.30;;;24.30;72.20;;;;;;5074159;28;20027;-87
2024/01/28 10:33:25;;;;;;;4.90;1.50;;;24.30;72.20;;;;;;5076123;28;20365;-86
2024/01/28 10:35:53;;;;;;;7.88;1.70;;;24.30;72.40;;;;;;5074964;28;20027;-87
2024/01/28 10:38:25;;;;;;;9.50;3.00;;;24.20;72.30;;;;;;5067565;28;20028;-83
2024/01/28 10:40:54;;;;;;;5.82;1.90;;;24.20;72.40;;;;;;5073129;28;20029;-84
2024/01/28 10:43:38;;;;;;;4.78;1.75;;;24.30;72.40;;;;;;5062915;28;20031;-90
2024/01/28 10:46:07;;;;;;;5.18;1.55;;;24.20;72.50;;;;;;5068460;28;20021;-89
2024/01/28 10:48:41;;;;;;;6.93;1.75;;;24.20;72.50;;;;;;5076211;28;20029;-90
2024/01/28 10:51:11;;;;;;;5.38;1.63;;;24.20;72.60;;;;;;5068137;28;20375;-88
2024/01/28 10:53:40;;;;;;;7.00;1.80;;;24.20;72.60;;;;;;5077566;28;20123;-80
2024/01/28 10:56:08;;;;;;;8.23;1.77;;;24.20;72.60;;;;;;5072865;28;20081;-89
2024/01/28 10:58:35;;;;;;;7.40;1.70;;;24.20;72.70;;;;;;5071631;28;20028;-89
2024/01/28 11:01:06;;;;;;;5.60;1.48;;;24.10;72.70;;;;;;5074292;28;20024;-89
2024/01/28 11:03:34;;;;;;;8.80;2.00;;;24.10;72.80;;;;;;5076774;28;20394;-87
2024/01/28 11:06:02;;;;;;;3.80;1.30;;;24.10;72.90;;;;;;5070839;28;20059;-83
2024/01/28 11:08:30;;;;;;;5.88;1.73;;;24.10;72.90;;;;;;5074111;28;20056;-86
2024/01/28 11:10:57;;;;;;;5.88;1.60;;;24.10;73.10;;;;;;5070323;28;20039;-80
2024/01/28 11:13:25;;;;;;;8.75;1.52;;;24.10;73.00;;;;;;5072920;28;20090;-90
2024/01/28 11:15:55;;;;;;;8.38;1.95;;;24.10;73.10;;;;;;5076475;28;20035;-90
2024/01/28 11:18:31;;;;;;;6.45;1.60;;;24.10;73.20;;;;;;5071598;28;20103;-81
2024/01/28 11:21:09;;;;;;;3.50;1.40;;;24.10;73.20;;;;;;5068775;28;20012;-81
2024/01/28 11:23:46;;;;;;;5.97;1.48;;;24.10;73.30;;;;;;5074528;28;20028;-82
2024/01/28 11:26:18;;;;;;;5.28;1.40;;;24.00;73.50;;;;;;5074775;28;20025;-82
2024/01/28 11:28:51;;;;;;;7.90;1.50;;;24.10;73.60;;;;;;5074085;28;20038;-87
2024/01/28 11:31:40;;;;;;;5.22;1.40;;;24.10;73.80;;;;;;5073116;28;20020;-80
2024/01/28 11:34:21;;;;;;;4.22;1.52;;;24.00;73.70;;;;;;5066859;28;20407;-87
2024/01/28 11:36:53;;;;;;;7.78;1.50;;;24.10;73.70;;;;;;5076852;28;20028;-83
2024/01/28 11:39:48;;;;;;;7.00;2.05;;;24.10;73.80;;;;;;5071485;28;20024;-82
2024/01/28 11:42:15;;;;;;;4.55;1.52;;;24.10;73.90;;;;;;5073564;28;20031;-89
2024/01/28 11:44:43;;;;;;;8.30;1.38;;;24.10;74.00;;;;;;5079049;28;20069;-81
2024/01/28 11:47:16;;;;;;;7.80;1.50;;;24.10;73.90;;;;;;5072509;28;20078;-87
2024/01/28 11:49:44;;;;;;;5.20;1.70;;;24.10;73.90;;;;;;5075268;28;20475;-81
2024/01/28 11:52:11;;;;;;;5.45;1.40;;;24.10;74.00;;;;;;5075423;28;20051;-87
2024/01/28 11:54:43;;;;;;;4.15;1.35;;;24.10;73.90;;;;;;5073819;28;20028;-89
2024/01/28 11:57:10;;;;;;;5.50;1.40;;;24.20;73.90;;;;;;5073667;28;20032;-81
2024/01/28 11:59:38;;;;;;;7.90;1.63;;;24.10;73.90;;;;;;5073494;28;20027;-80
2024/01/28 12:02:06;;;;;;;5.05;1.52;;;24.10;73.90;;;;;;5076742;28;20024;-90
2024/01/28 12:04:34;;;;;;;6.82;1.60;;;24.10;73.90;;;;;;5073957;28;20016;-81
2024/01/28 12:07:03;;;;;;;4.63;1.65;;;24.10;73.90;;;;;;5071637;28;20074;-82
2024/01/28 12:09:30;;;;;;;6.18;1.70;;;24.10;74.00;;;;;;5073921;28;20055;-83
2024/01/28 12:11:58;;;;;;;6.75;1.60;;;24.10;74.00;;;;;;5074353;28;20032;-90
2024/01/28 12:14:25;;;;;;;6.68;1.42;;;24.10;74.00;;;;;;5069560;28;20020;-82
2024/01/28 12:16:53;;;;;;;6.80;1.42;;;24.10;74.10;;;;;;5072481;28;20499;-90
2024/01/28 12:19:20;;;;;;;4.50;1.52;;;24.10;74.00;;;;;;5074524;28;20548;-87
2024/01/28 12:21:48;;;;;;;5.18;1.20;;;24.10;74.10;;;;;;5070467;28;20039;-85
2024/01/28 12:24:15;;;;;;;4.13;1.30;;;24.10;74.00;;;;;;5072310;28;20024;-81
2024/01/28 12:26:45;;;;;;;3.30;1.35;;;24.10;74.10;;;;;;5076791;28;20035;-88
2024/01/28 12:29:13;;;;;;;5.97;1.50;;;24.10;74.10;;;;;;5072808;28;20024;-89
2024/01/28 12:31:41;;;;;;;10.30;1.52;;;24.10;74.00;;;;;;5078528;28;20028;-82
2024/01/28 12:34:18;;;;;;;7.65;1.48;;;24.10;74.10;;;;;;5078363;28;20028;-81
2024/01/28 12:36:45;;;;;;;3.75;1.30;;;24.10;74.10;;;;;;5072316;28;20016;-81
2024/01/28 12:39:13;;;;;;;8.27;2.05;;;24.10;74.10;;;;;;5056692;28;20514;-80
2024/01/28 12:41:40;;;;;;;6.28;1.70;;;24.10;74.10;;;;;;5074733;28;20063;-87
2024/01/28 12:44:08;;;;;;;6.45;1.50;;;24.10;74.30;;;;;;5072299;28;20060;-81
2024/01/28 12:46:36;;;;;;;3.28;1.23;;;24.10;74.20;;;;;;5071197;28;20103;-87
2024/01/28 12:49:03;;;;;;;3.28;1.33;;;24.20;74.30;;;;;;5065295;28;20466;-84
2024/01/28 12:51:31;;;;;;;3.78;1.40;;;24.20;74.30;;;;;;5068418;28;20471;-82